createdAt,value
2018-05-08T00:01:35.250Z,17.53
2018-05-08T00:04:58.894Z,17.38
2018-05-08T00:08:21.778Z,17.31
2018-05-08T00:11:44.668Z,17.14
2018-05-08T00:15:08.269Z,17.10
2018-05-08T00:18:31.132Z,17.16
2018-05-08T00:21:53.985Z,17.13
2018-05-08T00:25:16.821Z,17.07
2018-05-08T00:28:39.677Z,17.02
2018-05-08T00:32:02.525Z,16.97
2018-05-08T00:35:25.446Z,16.95
2018-05-08T00:38:48.287Z,17.03
2018-05-08T00:42:11.131Z,16.80
2018-05-08T00:45:33.995Z,16.64
2018-05-08T00:48:56.835Z,16.79
2018-05-08T00:52:19.688Z,16.82
2018-05-08T00:55:42.556Z,16.80
2018-05-08T00:59:05.471Z,16.67
2018-05-08T01:02:28.316Z,16.61
2018-05-08T01:05:51.133Z,16.51
2018-05-08T01:09:14.009Z,16.51
2018-05-08T01:12:36.849Z,16.48
2018-05-08T01:15:59.713Z,16.32
2018-05-08T01:19:22.546Z,16.40
2018-05-08T01:22:45.396Z,16.16
2018-05-08T01:26:08.240Z,16.20
2018-05-08T01:29:31.097Z,16.15
2018-05-08T01:32:53.976Z,15.97
2018-05-08T01:36:17.586Z,16.15
2018-05-08T01:39:40.484Z,16.13
2018-05-08T01:43:03.361Z,16.25
2018-05-08T01:46:26.210Z,16.03
2018-05-08T01:49:49.194Z,15.88
2018-05-08T01:53:12.096Z,15.97
2018-05-08T01:56:35.004Z,16.13
2018-05-08T01:59:58.620Z,16.16
2018-05-08T02:03:21.458Z,16.08
2018-05-08T02:06:44.289Z,15.93
2018-05-08T02:10:07.204Z,15.86
2018-05-08T02:13:30.068Z,15.73
2018-05-08T02:16:52.949Z,15.87
2018-05-08T02:20:15.907Z,15.75
2018-05-08T02:23:38.702Z,15.62
2018-05-08T02:27:01.532Z,15.90
2018-05-08T02:30:24.462Z,15.62
2018-05-08T02:33:47.325Z,15.66
2018-05-08T02:37:10.163Z,15.86
2018-05-08T02:40:32.995Z,15.94
2018-05-08T02:43:56.673Z,15.83
2018-05-08T02:47:19.493Z,15.72
2018-05-08T02:50:42.348Z,15.72
2018-05-08T02:54:05.204Z,15.88
2018-05-08T02:57:28.043Z,15.67
2018-05-08T03:00:50.904Z,15.74
2018-05-08T03:04:14.162Z,15.67
2018-05-08T03:07:37.040Z,15.85
2018-05-08T03:10:59.876Z,15.74
2018-05-08T03:14:22.792Z,15.74
2018-05-08T03:17:45.648Z,15.67
2018-05-08T03:21:08.492Z,15.41
2018-05-08T03:24:31.422Z,15.50
2018-05-08T03:27:54.257Z,15.58
2018-05-08T03:31:17.106Z,15.58
2018-05-08T03:34:39.996Z,15.61
2018-05-08T03:38:03.610Z,15.76
2018-05-08T03:41:26.446Z,15.42
2018-05-08T03:44:49.324Z,15.35
2018-05-08T03:48:12.231Z,15.40
2018-05-08T03:51:35.088Z,15.31
2018-05-08T03:54:57.981Z,15.31
2018-05-08T03:58:20.834Z,15.46
2018-05-08T04:01:55.472Z,15.23
2018-05-08T04:05:30.045Z,15.35
2018-05-08T04:08:54.392Z,15.56
2018-05-08T04:12:17.245Z,15.42
2018-05-08T04:15:40.095Z,15.26
2018-05-08T04:19:02.939Z,15.31
2018-05-08T04:22:25.799Z,15.36
2018-05-08T04:25:48.664Z,15.30
2018-05-08T04:29:13.037Z,15.36
2018-05-08T04:32:36.656Z,15.32
2018-05-08T04:35:59.647Z,15.37
2018-05-08T04:39:22.502Z,15.24
2018-05-08T04:42:45.354Z,15.44
2018-05-08T04:46:08.198Z,15.24
2018-05-08T04:49:31.047Z,15.29
2018-05-08T04:52:53.896Z,15.59
2018-05-08T04:56:16.831Z,15.63
2018-05-08T04:59:39.735Z,15.91
2018-05-08T05:03:02.605Z,15.81
2018-05-08T05:06:25.486Z,16.02
2018-05-08T05:09:48.392Z,16.33
2018-05-08T05:13:11.986Z,16.22
2018-05-08T05:16:34.867Z,16.07
2018-05-08T05:19:57.777Z,15.98
2018-05-08T05:23:22.656Z,16.05
2018-05-08T05:26:45.713Z,16.04
2018-05-08T05:30:09.040Z,15.90
2018-05-08T05:33:32.654Z,15.84
2018-05-08T05:36:55.584Z,15.95
2018-05-08T05:40:18.481Z,16.13
2018-05-08T05:43:42.150Z,15.79
2018-05-08T05:47:04.994Z,15.90
2018-05-08T05:50:27.975Z,16.02
2018-05-08T05:53:50.829Z,16.19
2018-05-08T05:57:13.688Z,15.96
2018-05-08T06:00:36.523Z,16.39
2018-05-08T06:03:59.385Z,16.57
2018-05-08T06:07:22.315Z,16.76
2018-05-08T06:10:45.194Z,16.66
2018-05-08T06:14:08.068Z,16.67
2018-05-08T06:17:30.917Z,16.63
2018-05-08T06:20:53.746Z,16.63
2018-05-08T06:24:16.676Z,16.87
2018-05-08T06:27:39.526Z,16.70
2018-05-08T06:31:02.391Z,16.89
2018-05-08T06:34:25.340Z,16.83
2018-05-08T06:37:49.010Z,17.15
2018-05-08T06:41:12.004Z,17.28
2018-05-08T06:44:34.866Z,17.38
2018-05-08T06:47:57.767Z,17.58
2018-05-08T06:51:20.629Z,17.24
2018-05-08T06:54:43.490Z,17.34
2018-05-08T06:58:07.201Z,17.57
2018-05-08T07:01:30.041Z,17.78
2018-05-08T07:04:52.899Z,17.90
2018-05-08T07:08:16.570Z,17.77
2018-05-08T07:11:39.474Z,18.02
2018-05-08T07:15:03.100Z,18.23
2018-05-08T07:18:26.403Z,18.21
2018-05-08T07:21:49.764Z,18.48
2018-05-08T07:25:13.089Z,17.94
2018-05-08T07:28:36.383Z,18.21
2018-05-08T07:31:59.258Z,18.39
2018-05-08T07:35:22.167Z,18.52
2018-05-08T07:38:45.005Z,18.80
2018-05-08T07:42:08.325Z,18.82
2018-05-08T07:45:32.469Z,18.95
2018-05-08T07:48:55.871Z,19.03
2018-05-08T07:52:19.249Z,18.95
2018-05-08T07:55:42.569Z,19.16
2018-05-08T07:59:06.700Z,19.02
2018-05-08T08:02:30.050Z,19.27
2018-05-08T08:05:53.456Z,19.49
2018-05-08T08:09:16.775Z,19.75
2018-05-08T08:12:40.856Z,19.80
2018-05-08T08:16:04.937Z,19.69
2018-05-08T08:19:29.760Z,19.58
2018-05-08T08:22:53.224Z,19.75
2018-05-08T08:26:16.504Z,20.04
2018-05-08T08:29:39.884Z,19.83
2018-05-08T08:33:03.184Z,20.03
2018-05-08T08:36:27.304Z,20.08
2018-05-08T08:39:50.595Z,20.58
2018-05-08T08:43:13.874Z,21.05
2018-05-08T08:46:37.254Z,21.16
2018-05-08T08:50:01.977Z,20.88
2018-05-08T08:53:25.300Z,20.63
2018-05-08T08:56:48.611Z,21.08
2018-05-08T09:00:12.038Z,21.27
2018-05-08T09:03:36.404Z,20.93
2018-05-08T09:06:59.706Z,21.17
2018-05-08T09:10:23.097Z,21.74
2018-05-08T09:13:46.411Z,20.90
2018-05-08T09:17:09.704Z,21.21
2018-05-08T09:20:33.089Z,21.86
2018-05-08T09:23:57.124Z,21.77
2018-05-08T09:27:20.430Z,21.69
2018-05-08T09:30:43.812Z,21.84
2018-05-08T09:34:07.943Z,22.05
2018-05-08T09:37:31.221Z,22.21
2018-05-08T09:40:54.628Z,22.65
2018-05-08T09:44:17.962Z,22.18
2018-05-08T09:47:42.832Z,22.05
2018-05-08T09:51:06.176Z,22.51
2018-05-08T09:54:29.460Z,22.48
2018-05-08T09:57:52.964Z,22.20
2018-05-08T10:01:16.282Z,22.38
2018-05-08T10:04:40.478Z,22.65
2018-05-08T10:08:03.827Z,22.99
2018-05-08T10:11:27.194Z,22.75
2018-05-08T10:14:50.656Z,22.92
2018-05-08T10:18:14.783Z,22.72
2018-05-08T10:21:38.146Z,22.95
2018-05-08T10:25:01.488Z,23.26
2018-05-08T10:28:24.862Z,23.71
2018-05-08T10:31:48.197Z,23.30
2018-05-08T10:35:11.598Z,23.52
2018-05-08T10:38:35.662Z,23.38
2018-05-08T10:41:59.051Z,23.73
2018-05-08T10:45:24.645Z,23.87
2018-05-08T10:48:48.695Z,23.69
2018-05-08T10:52:12.006Z,24.48
2018-05-08T10:55:35.391Z,24.72
2018-05-08T10:58:58.611Z,24.09
2018-05-08T11:02:21.898Z,24.08
2018-05-08T11:05:45.157Z,24.11
2018-05-08T11:09:09.221Z,24.65
2018-05-08T11:12:32.733Z,25.20
2018-05-08T11:15:56.135Z,24.61
2018-05-08T11:19:19.407Z,25.39
2018-05-08T11:22:42.719Z,25.13
2018-05-08T11:26:06.063Z,24.50
2018-05-08T11:29:29.334Z,24.36
2018-05-08T11:36:47.237Z,25.23
2018-05-08T11:40:10.561Z,24.98
2018-05-08T11:43:34.036Z,25.26
2018-05-08T11:46:57.320Z,25.82
2018-05-08T11:50:20.605Z,24.78
2018-05-08T11:53:43.893Z,25.51
2018-05-08T11:57:07.253Z,25.49
2018-05-08T12:00:30.590Z,25.57
2018-05-08T12:03:53.886Z,25.68
2018-05-08T12:07:17.167Z,25.55
2018-05-08T12:10:40.646Z,25.37
2018-05-08T12:14:04.746Z,25.84
2018-05-08T12:17:28.542Z,25.97
2018-05-08T12:20:51.891Z,26.50
2018-05-08T12:24:15.202Z,26.51
2018-05-08T12:27:38.583Z,26.60
2018-05-08T12:31:02.635Z,26.59
2018-05-08T12:34:25.986Z,26.86
2018-05-08T12:37:49.282Z,26.84
2018-05-08T12:41:12.648Z,26.04
2018-05-08T12:44:35.977Z,26.39
2018-05-08T12:47:59.378Z,25.78
2018-05-08T12:51:23.444Z,26.42
2018-05-08T12:54:46.773Z,26.14
2018-05-08T12:58:10.890Z,27.24
2018-05-08T13:01:34.247Z,27.57
2018-05-08T13:04:57.583Z,27.36
2018-05-08T13:08:20.876Z,27.24
2018-05-08T13:11:44.234Z,27.26
2018-05-08T13:23:02.230Z,27.27
2018-05-08T13:26:25.577Z,27.49
2018-05-08T13:29:48.913Z,26.73
2018-05-08T13:33:12.225Z,27.07
2018-05-08T13:36:35.611Z,26.89
2018-05-08T13:39:58.851Z,27.32
2018-05-08T13:43:22.216Z,27.46
2018-05-08T13:46:45.571Z,27.33
2018-05-08T13:50:08.933Z,27.93
2018-05-08T13:53:32.250Z,27.66
2018-05-08T13:56:55.646Z,27.92
2018-05-08T14:00:18.986Z,26.98
2018-05-08T14:03:42.290Z,27.33
2018-05-08T14:07:05.651Z,27.27
2018-05-08T14:10:29.005Z,27.00
2018-05-08T14:13:52.353Z,27.28
2018-05-08T14:17:15.773Z,27.21
2018-05-08T14:20:39.060Z,27.73
2018-05-08T14:24:02.345Z,27.18
2018-05-08T14:27:25.701Z,27.57
2018-05-08T14:30:49.009Z,27.93
2018-05-08T14:34:13.157Z,27.90
2018-05-08T14:37:36.580Z,27.56
2018-05-08T14:40:59.976Z,27.82
2018-05-08T14:44:24.142Z,27.68
2018-05-08T14:47:47.534Z,28.54
2018-05-08T14:51:10.883Z,29.42
2018-05-08T14:54:34.229Z,29.25
2018-05-08T14:57:57.527Z,29.33
2018-05-08T15:01:20.872Z,29.13
2018-05-08T15:04:44.153Z,28.69
2018-05-08T15:08:07.424Z,28.48
2018-05-08T15:11:30.991Z,28.85
2018-05-08T15:14:54.289Z,28.59
2018-05-08T15:18:17.585Z,28.67
2018-05-08T15:21:40.949Z,28.56
2018-05-08T15:25:04.213Z,28.63
2018-05-08T15:28:27.656Z,28.84
2018-05-08T15:31:51.004Z,28.88
2018-05-08T15:35:14.274Z,29.13
2018-05-08T15:38:37.580Z,29.10
2018-05-08T15:42:00.922Z,29.97
2018-05-08T15:45:24.237Z,30.31
2018-05-08T15:48:47.576Z,29.50
2018-05-08T15:52:10.897Z,29.45
2018-05-08T15:55:34.969Z,29.93
2018-05-08T15:58:58.302Z,29.78
2018-05-08T16:02:22.327Z,29.89
2018-05-08T16:05:45.673Z,29.72
2018-05-08T16:09:09.106Z,29.41
2018-05-08T16:12:32.501Z,30.51
2018-05-08T16:15:56.600Z,30.23
2018-05-08T16:19:19.909Z,28.87
2018-05-08T16:22:43.283Z,29.02
2018-05-08T16:26:07.421Z,28.79
2018-05-08T16:29:30.762Z,28.80
2018-05-08T16:32:54.101Z,29.18
2018-05-08T16:36:18.219Z,29.06
2018-05-08T16:39:41.531Z,30.17
2018-05-08T16:43:05.637Z,29.51
2018-05-08T16:46:28.930Z,29.82
2018-05-08T16:49:52.215Z,29.80
2018-05-08T16:53:15.547Z,29.25
2018-05-08T16:56:39.677Z,29.09
2018-05-08T17:00:03.065Z,29.39
2018-05-08T17:03:27.179Z,29.86
2018-05-08T17:06:50.526Z,30.11
2018-05-08T17:10:13.841Z,29.60
2018-05-08T17:13:37.192Z,29.63
2018-05-08T17:17:00.524Z,29.80
2018-05-08T17:20:23.813Z,29.66
2018-05-08T17:23:47.087Z,29.33
2018-05-08T17:27:10.376Z,29.11
2018-05-08T17:30:33.678Z,28.42
2018-05-08T17:33:57.028Z,28.86
2018-05-08T17:37:20.568Z,28.40
2018-05-08T17:40:44.199Z,28.82
2018-05-08T17:44:07.622Z,28.19
2018-05-08T17:47:30.472Z,28.34
2018-05-08T17:50:53.376Z,28.07
2018-05-08T17:54:16.297Z,27.48
2018-05-08T17:57:39.454Z,26.44
2018-05-08T18:01:03.412Z,26.72
2018-05-08T18:04:27.038Z,26.42
2018-05-08T18:07:50.116Z,26.20
2018-05-08T18:11:13.993Z,26.01
2018-05-08T18:14:38.779Z,25.83
2018-05-08T18:18:03.062Z,25.71
2018-05-08T18:21:25.970Z,25.60
2018-05-08T18:24:48.845Z,25.26
2018-05-08T18:28:11.838Z,25.27
2018-05-08T18:31:37.396Z,25.16
2018-05-08T18:35:01.052Z,25.13
2018-05-08T18:38:24.805Z,24.95
2018-05-08T18:41:47.782Z,24.90
2018-05-08T18:45:11.564Z,24.67
2018-05-08T18:48:34.511Z,24.70
2018-05-08T18:51:57.381Z,24.45
2018-05-08T18:55:20.286Z,24.45
2018-05-08T18:58:43.152Z,24.26
2018-05-08T19:02:06.239Z,24.15
2018-05-08T19:05:29.943Z,24.16
2018-05-08T19:08:54.317Z,23.96
2018-05-08T19:12:17.963Z,23.87
2018-05-08T19:15:46.561Z,23.80
2018-05-08T19:19:18.064Z,23.78
2018-05-08T19:22:42.464Z,23.73
2018-05-08T19:26:05.341Z,23.71
2018-05-08T19:29:33.786Z,23.68
2018-05-08T19:32:56.791Z,23.68
2018-05-08T19:36:25.379Z,23.57
2018-05-08T19:39:48.269Z,23.52
2018-05-08T19:43:11.165Z,23.49
2018-05-08T19:46:36.232Z,23.47
2018-05-08T19:49:59.394Z,23.43
2018-05-08T19:53:23.206Z,23.34
2018-05-08T19:56:46.934Z,23.13
2018-05-08T20:00:09.852Z,23.21
2018-05-08T20:03:32.735Z,23.16
2018-05-08T20:06:55.575Z,23.04
2018-05-08T20:10:18.423Z,22.92
2018-05-08T20:13:41.339Z,22.82
2018-05-08T20:17:04.239Z,22.79
2018-05-08T20:20:28.061Z,22.80
2018-05-08T20:23:50.901Z,22.59
2018-05-08T20:27:13.931Z,22.72
2018-05-08T20:30:38.452Z,22.71
2018-05-08T20:34:01.284Z,22.56
2018-05-08T20:37:24.292Z,22.41
2018-05-08T20:40:48.111Z,22.41
2018-05-08T20:44:11.129Z,22.35
2018-05-08T20:47:33.972Z,22.21
2018-05-08T20:50:57.451Z,22.18
2018-05-08T20:54:20.336Z,22.11
2018-05-08T20:57:44.215Z,22.04
2018-05-08T21:01:07.928Z,21.98
2018-05-08T21:04:30.676Z,21.98
2018-05-08T21:07:53.533Z,21.96
2018-05-08T21:11:16.483Z,21.81
2018-05-08T21:14:40.115Z,21.72
2018-05-08T21:18:03.064Z,21.81
2018-05-08T21:21:25.872Z,21.71
2018-05-08T21:24:48.749Z,21.58
2018-05-08T21:28:17.223Z,21.49
2018-05-08T21:31:40.813Z,21.35
2018-05-08T21:35:03.684Z,21.12
2018-05-08T21:38:28.339Z,20.93
2018-05-08T21:41:51.244Z,20.94
2018-05-08T21:45:14.192Z,20.63
2018-05-08T21:48:38.653Z,20.66
2018-05-08T21:52:01.605Z,20.41
2018-05-08T21:55:24.456Z,20.14
2018-05-08T21:58:47.308Z,20.21
2018-05-08T22:02:10.141Z,20.09
2018-05-08T22:05:32.991Z,19.92
2018-05-08T22:08:55.842Z,19.89
2018-05-08T22:12:18.720Z,20.06
2018-05-08T22:15:43.369Z,19.90
2018-05-08T22:19:06.294Z,19.84
2018-05-08T22:22:29.254Z,19.99
2018-05-08T22:25:52.182Z,19.81
2018-05-08T22:29:15.169Z,19.84
2018-05-08T22:32:38.174Z,19.57
2018-05-08T22:36:01.034Z,19.38
2018-05-08T22:39:23.937Z,19.52
2018-05-08T22:42:46.800Z,19.24
2018-05-08T22:46:09.648Z,19.30
2018-05-08T22:49:32.499Z,19.16
2018-05-08T22:52:55.338Z,19.05
2018-05-08T22:56:18.185Z,18.96
2018-05-08T22:59:41.788Z,18.88
2018-05-08T23:03:05.412Z,18.83
2018-05-08T23:06:28.262Z,18.84
2018-05-08T23:09:51.100Z,19.05
2018-05-08T23:13:13.984Z,18.87
2018-05-08T23:16:37.624Z,18.67
2018-05-08T23:20:00.518Z,18.63
2018-05-08T23:23:23.376Z,18.54
2018-05-08T23:26:46.292Z,18.50
2018-05-08T23:30:09.122Z,18.57
2018-05-08T23:33:31.992Z,18.24
2018-05-08T23:36:54.850Z,18.21
2018-05-08T23:40:17.766Z,18.25
2018-05-08T23:43:40.676Z,18.16
2018-05-08T23:47:03.542Z,18.32
2018-05-08T23:50:26.454Z,18.31
2018-05-08T23:53:49.309Z,18.28
2018-05-08T23:57:12.154Z,18.22
